Chesterville, Ohio
Current Conditions -  °F | °C
As of 9:35 AM on Tuesday 21 Oct 2014 (Local Time) from K4I3 Reporting Station
Drizzle Drizzle  
Wind Chill: 42°   Ceiling: 1100
Heat Index: 46°   Visibility: 5mi
Dew Point: 46°   Wind: 9mph
Humidity: 100%   Direction: 330°NNW
Pressure: 29.93"   Gusts: NA
Location:  40.48°N, 82.68°W
Report Text: K4I3 211335Z AUTO 33008KT 5SM DZ BKN011 BKN022 OVC045 08/08 A2993 RMK AO2
Loading
Personal Weather Stations






























Interactive Weather Map
Tropical Storm Tracking
New forecast layout! Learn more

10-Day Weather Forecast

Advertisements
Track Severe Weather on mobile